CST,Max TemperatureF,Mean TemperatureF,Min TemperatureF,Max Dew PointF,MeanDew PointF,Min DewpointF,Max Humidity, Mean Humidity, Min Humidity, Max Sea Level PressureIn, Mean Sea Level PressureIn, Min Sea Level PressureIn, Max VisibilityMiles, Mean VisibilityMiles, Min VisibilityMiles, Max Wind SpeedMPH, Mean Wind SpeedMPH, Max Gust SpeedMPH,PrecipitationIn, CloudCover, Events, WindDirDegrees
2013-12-1,35,27,19,24,22,17,89,78,61,30.23,30.13,29.96,9,7,5,6,2,,0.00,2,,224
2013-12-2,37,32,27,34,29,23,96,87,73,29.94,29.71,29.61,7,3,0,15,7,,0.11,8,Fog-Rain-Snow,131
2013-12-3,36,34,32,34,32,29,96,91,85,29.81,29.70,29.61,10,4,1,9,6,,0.05,8,Snow,99
2013-12-4,32,26,16,30,27,9,93,89,74,29.80,29.60,29.47,10,4,0,21,7,29,0.48,8,Fog-Rain-Snow,342
2013-12-5,12,6,1,7,-2,-7,77,68,61,30.40,30.12,29.77,10,10,6,22,16,26,0.00,3,,270
2013-12-6,5,0,-5,-5,-9,-14,78,69,60,30.71,30.54,30.41,10,10,9,16,10,,0.00,1,,281
2013-12-7,1,-4,-9,-9,-13,-15,77,69,57,30.80,30.72,30.64,10,10,8,12,6,,0.00,2,Fog,247
2013-12-8,12,6,0,7,3,-9,85,78,69,30.62,30.25,30.04,10,3,1,14,5,,0.00,8,Snow,98
2013-12-9,10,3,-4,7,-3,-11,85,75,60,30.17,30.07,29.95,10,8,2,20,7,25,0.00,4,Snow,245
2013-12-10,12,6,1,5,0,-5,87,74,58,30.33,29.99,29.78,10,6,1,16,8,25,0.01,5,Snow,237
2013-12-11,1,-2,-6,-7,-12,-15,72,64,55,30.62,30.53,30.37,10,10,10,18,12,24,0.00,1,,265
2013-12-12,19,10,1,10,3,-6,80,70,62,30.36,30.28,30.19,10,9,2,9,5,,0.00,4,Snow,186
2013-12-13,17,14,10,9,6,4,79,71,64,30.34,30.25,30.15,10,9,2,13,7,18,0.00,8,Snow,49
2013-12-14,15,9,1,9,4,-6,81,76,68,30.32,30.21,30.09,10,5,2,18,6,26,0.00,7,Snow,354
2013-12-15,3,2,0,-8,-10,-13,69,60,52,30.22,30.19,30.15,10,10,10,15,11,,0.00,5,,341
2013-12-16,19,9,1,15,3,-12,92,77,55,30.18,30.03,29.95,10,5,0,12,7,,0.05,7,Fog-Snow,157
2013-12-17,33,22,10,26,15,6,84,69,59,30.15,30.02,29.89,10,10,10,26,13,32,0.00,3,,288
2013-12-18,33,20,8,23,15,4,92,78,64,30.12,29.84,29.68,10,10,9,15,5,,0.00,0,,153
2013-12-19,26,22,17,19,11,8,81,73,65,30.12,30.04,29.85,10,7,2,14,9,21,0.00,5,Snow,11
2013-12-20,19,17,15,14,12,10,81,77,71,30.05,30.00,29.89,10,8,1,8,5,,0.00,8,Snow,2
2013-12-21,24,20,15,15,13,10,80,74,68,30.03,29.96,29.89,10,10,10,12,4,,0.00,8,,353
2013-12-22,19,14,8,16,10,3,86,79,73,30.27,30.09,29.98,10,6,1,14,10,,0.00,8,Snow,306
2013-12-23,7,2,-2,1,-5,-10,79,72,66,30.56,30.41,30.25,10,6,2,15,11,,0.00,7,Snow,298
2013-12-24,10,0,-11,5,-5,-18,85,73,51,30.56,30.36,30.18,10,7,0,20,7,24,0.13,4,Fog-Snow,164
2013-12-25,25,18,10,18,11,4,84,76,63,30.19,30.12,30.04,10,8,4,18,6,26,0.00,7,Snow,261
2013-12-26,26,19,12,20,14,8,93,80,71,30.21,30.14,30.09,10,7,0,9,2,,0.00,7,Fog-Snow,168
2013-12-27,39,24,10,29,19,9,100,86,62,30.20,30.07,29.92,10,5,0,12,2,17,0.00,3,Fog,177
2013-12-28,44,32,19,30,23,18,96,86,55,30.01,29.88,29.68,10,5,0,26,5,34,0.00,5,Fog-Rain-Snow,101
2013-12-29,21,6,-9,18,-7,-19,86,63,47,30.38,30.27,29.99,10,10,5,24,19,34,0.00,4,Rain,322
2013-12-30,1,-6,-13,-4,-9,-19,84,75,65,30.37,30.26,30.20,10,4,1,8,3,,0.01,7,Snow,140
2013-12-31,0,-4,-8,-7,-12,-17,84,72,60,30.48,30.36,30.20,10,10,8,9,6,,0.00,3,,321